Time;durP1;ratioP1;P1;durP2;ratioP2;P2;SDS_P1;SDS_P2;PMS_P1;PMS_P2;Temp;Humidity;BMP_temperature;BMP_pressure;BME280_temperature;BME280_humidity;BME280_pressure;Samples;Min_cycle;Max_cycle;Signal;HPM_P1;HPM_P2
2022/01/08 00:02:10;;;;;;;12.25;3.72;;;1.90;99.90;;;;;;4995498;28;20042;-80
2022/01/08 00:04:36;;;;;;;10.57;3.33;;;1.90;99.90;;;;;;5001527;28;20045;-80
2022/01/08 00:07:02;;;;;;;8.23;3.20;;;1.90;99.90;;;;;;5000859;28;20039;-80
2022/01/08 00:09:28;;;;;;;8.18;2.60;;;1.90;99.90;;;;;;4997612;28;20440;-79
2022/01/08 00:11:54;;;;;;;12.18;2.70;;;1.90;99.90;;;;;;4990479;28;20057;-79
2022/01/08 00:14:22;;;;;;;8.85;2.53;;;1.90;99.90;;;;;;4996685;28;20499;-80
2022/01/08 00:16:47;;;;;;;6.32;2.33;;;1.90;99.90;;;;;;5000947;28;20043;-80
2022/01/08 00:19:13;;;;;;;7.53;2.60;;;1.90;99.90;;;;;;5002438;28;20046;-80
2022/01/08 00:21:39;;;;;;;16.02;2.97;;;1.90;99.90;;;;;;4997852;28;20089;-80
2022/01/08 00:24:04;;;;;;;8.23;2.70;;;1.90;99.90;;;;;;4998087;28;20053;-79
2022/01/08 00:26:30;;;;;;;6.82;2.80;;;1.90;99.90;;;;;;4999066;28;20606;-80
2022/01/08 00:28:56;;;;;;;9.63;3.20;;;1.90;99.90;;;;;;4999098;28;20508;-80
2022/01/08 00:31:22;;;;;;;9.73;3.10;;;1.90;99.90;;;;;;4993498;28;20104;-80
2022/01/08 00:33:47;;;;;;;7.20;2.70;;;1.90;99.90;;;;;;4996438;28;20716;-80
2022/01/08 00:36:13;;;;;;;10.90;4.05;;;1.90;99.90;;;;;;4999342;28;20053;-80
2022/01/08 00:38:39;;;;;;;9.80;3.25;;;2.00;99.90;;;;;;5005756;28;20146;-80
2022/01/08 00:41:05;;;;;;;7.75;3.08;;;1.80;99.90;;;;;;4994034;28;20505;-80
2022/01/08 00:43:31;;;;;;;6.65;3.20;;;1.80;99.90;;;;;;5032939;27;20069;-80
2022/01/08 00:45:56;;;;;;;11.50;3.45;;;1.80;99.90;;;;;;4995483;28;20039;-80
2022/01/08 00:48:22;;;;;;;8.35;3.17;;;1.80;99.90;;;;;;5002100;28;20046;-80
2022/01/08 00:50:48;;;;;;;11.57;3.40;;;1.80;99.90;;;;;;4993269;28;20054;-80
2022/01/08 00:53:14;;;;;;;6.78;3.25;;;1.80;99.90;;;;;;4990362;28;20452;-80
2022/01/08 00:55:39;;;;;;;11.95;3.38;;;1.70;99.90;;;;;;5001303;28;20095;-80
2022/01/08 00:58:05;;;;;;;8.82;3.30;;;1.70;99.90;;;;;;4998640;28;20095;-80
2022/01/08 01:00:31;;;;;;;8.73;3.20;;;1.70;99.90;;;;;;4999053;28;20428;-80
2022/01/08 01:02:56;;;;;;;6.57;2.92;;;1.70;99.90;;;;;;5001706;28;20114;-80
2022/01/08 01:05:22;;;;;;;9.50;3.40;;;1.40;99.90;;;;;;4993119;28;20050;-80
2022/01/08 01:07:48;;;;;;;8.05;4.03;;;1.70;99.90;;;;;;4999395;28;20057;-80
2022/01/08 01:10:15;;;;;;;7.90;3.15;;;1.70;99.90;;;;;;4995405;28;20044;-80
2022/01/08 01:12:41;;;;;;;6.22;3.25;;;1.70;99.90;;;;;;4991572;28;20042;-80
2022/01/08 01:15:14;;;;;;;7.45;3.10;;;1.70;99.90;;;;;;4993573;28;20463;-80
2022/01/08 01:17:41;;;;;;;7.82;3.20;;;1.70;99.90;;;;;;4992828;28;20050;-80
2022/01/08 01:20:08;;;;;;;9.88;3.72;;;1.80;99.90;;;;;;5030443;27;20850;-80
2022/01/08 01:25:35;;;;;;;7.43;3.60;;;1.80;99.90;;;;;;5007776;28;20042;-80
2022/01/08 01:28:10;;;;;;;10.98;4.07;;;1.70;99.90;;;;;;4993165;28;20047;-80
2022/01/08 01:49:14;;;;;;;;;;;1.90;99.90;;;;;;4997150;28;20061;-80
2022/01/08 01:51:40;;;;;;;13.50;4.82;;;1.90;99.90;;;;;;4997545;28;20322;-80
2022/01/08 01:54:05;;;;;;;10.60;4.60;;;2.00;99.90;;;;;;5001053;28;20046;-80
2022/01/08 01:56:31;;;;;;;10.30;4.47;;;2.00;99.90;;;;;;4999511;28;20046;-80
2022/01/08 01:58:57;;;;;;;11.65;5.30;;;2.00;99.90;;;;;;5000733;28;20482;-80
2022/01/08 02:01:23;;;;;;;12.32;5.90;;;2.00;99.90;;;;;;4996655;28;20496;-79
2022/01/08 02:03:49;;;;;;;14.40;5.70;;;2.10;99.90;;;;;;4989986;28;20030;-79
2022/01/08 02:06:14;;;;;;;13.13;5.88;;;2.10;99.90;;;;;;4997959;28;20094;-79
2022/01/08 02:08:41;;;;;;;18.02;6.40;;;1.90;99.90;;;;;;4994585;28;20088;-79
2022/01/08 02:11:07;;;;;;;14.15;5.88;;;2.10;99.90;;;;;;4996059;28;20122;-79
2022/01/08 02:13:34;;;;;;;12.48;6.78;;;2.10;99.90;;;;;;4999035;28;20137;-79
2022/01/08 02:16:01;;;;;;;13.25;6.00;;;2.10;99.90;;;;;;4995616;28;20429;-79
2022/01/08 02:18:28;;;;;;;15.07;6.93;;;2.00;99.90;;;;;;4995537;28;20117;-79
2022/01/08 02:20:56;;;;;;;15.13;6.28;;;2.00;99.90;;;;;;4997168;28;20037;-80
2022/01/08 02:23:22;;;;;;;15.30;6.57;;;2.00;99.90;;;;;;4997191;28;20050;-80
2022/01/08 02:25:49;;;;;;;16.95;6.93;;;2.00;99.90;;;;;;5002505;28;20099;-80
2022/01/08 02:28:14;;;;;;;12.15;5.82;;;2.00;99.90;;;;;;4994975;28;20390;-80
2022/01/08 02:30:40;;;;;;;14.18;7.28;;;2.70;99.90;;;;;;4989608;28;20126;-80
2022/01/08 02:33:06;;;;;;;15.40;8.07;;;1.90;99.90;;;;;;4994453;28;20451;-80
2022/01/08 02:35:33;;;;;;;17.95;7.10;;;1.90;99.90;;;;;;4992146;28;20413;-80
2022/01/08 02:37:59;;;;;;;14.68;6.78;;;1.90;99.90;;;;;;4992341;28;20070;-80
2022/01/08 02:40:25;;;;;;;14.88;6.88;;;1.90;99.90;;;;;;4996034;28;20046;-80
2022/01/08 02:42:54;;;;;;;14.38;6.95;;;1.90;99.90;;;;;;4995080;28;20054;-80
2022/01/08 02:45:21;;;;;;;15.57;6.97;;;1.80;99.90;;;;;;4991388;28;20073;-79
2022/01/08 02:47:47;;;;;;;13.18;7.38;;;1.80;99.90;;;;;;5024039;28;20042;-79
2022/01/08 02:50:13;;;;;;;15.35;6.32;;;1.80;99.90;;;;;;4992784;28;20129;-80
2022/01/08 02:52:41;;;;;;;14.65;6.70;;;1.80;99.90;;;;;;4992200;28;20046;-80
2022/01/08 02:55:07;;;;;;;16.10;7.18;;;1.80;99.90;;;;;;5002762;28;20509;-79
2022/01/08 02:57:33;;;;;;;18.77;7.40;;;1.80;99.90;;;;;;5028145;28;20401;-79
2022/01/08 02:59:59;;;;;;;13.68;6.10;;;2.00;99.90;;;;;;4990068;28;20042;-80
2022/01/08 03:02:24;;;;;;;15.30;7.05;;;1.80;99.90;;;;;;4999522;28;20111;-80
2022/01/08 03:04:50;;;;;;;16.92;7.20;;;1.70;99.90;;;;;;5027875;27;20073;-80
2022/01/08 03:07:15;;;;;;;17.85;7.60;;;1.80;99.90;;;;;;4992691;28;20046;-79
2022/01/08 03:09:42;;;;;;;15.45;6.55;;;2.10;99.90;;;;;;4997766;28;20061;-80
2022/01/08 03:12:09;;;;;;;12.90;6.38;;;1.70;99.90;;;;;;4985730;28;20050;-80
2022/01/08 03:14:35;;;;;;;17.02;7.63;;;1.70;99.90;;;;;;4998975;28;20049;-79
2022/01/08 03:17:00;;;;;;;11.82;6.18;;;1.70;99.90;;;;;;4996702;28;20099;-79
2022/01/08 03:19:26;;;;;;;12.40;6.65;;;1.70;99.90;;;;;;4998917;28;20077;-80
2022/01/08 03:21:54;;;;;;;15.50;6.10;;;1.70;99.90;;;;;;4996400;28;20065;-80
2022/01/08 03:24:28;;;;;;;16.00;6.60;;;1.60;99.90;;;;;;4992668;28;20510;-79
2022/01/08 03:26:55;;;;;;;15.50;6.60;;;1.60;99.90;;;;;;4996486;28;20041;-80
2022/01/08 03:29:21;;;;;;;13.50;6.20;;;1.60;99.90;;;;;;4997175;28;20126;-80
2022/01/08 03:31:47;;;;;;;12.25;5.75;;;1.60;99.90;;;;;;5001202;28;20124;-79
2022/01/08 03:34:13;;;;;;;13.10;6.15;;;1.60;99.90;;;;;;4999928;28;20561;-80
2022/01/08 03:36:38;;;;;;;14.30;5.80;;;1.50;99.90;;;;;;4990792;28;20046;-80
2022/01/08 03:39:04;;;;;;;13.80;5.60;;;1.60;99.90;;;;;;4995153;28;20082;-80
2022/01/08 03:41:30;;;;;;;15.07;6.25;;;1.60;99.90;;;;;;4993711;28;20039;-80
2022/01/08 03:43:56;;;;;;;10.85;5.43;;;1.70;99.90;;;;;;4992586;28;20038;-79
2022/01/08 03:46:22;;;;;;;11.20;5.63;;;1.50;99.90;;;;;;4996588;28;20050;-80
2022/01/08 03:51:26;;;;;;;9.32;4.53;;;1.50;99.90;;;;;;4996751;28;20047;-80
2022/01/08 03:53:52;;;;;;;10.10;5.03;;;1.50;99.90;;;;;;5002518;28;20054;-80
2022/01/08 03:56:17;;;;;;;11.68;5.40;;;1.50;99.90;;;;;;5024672;27;20394;-80
2022/01/08 03:58:43;;;;;;;14.50;4.47;;;1.50;99.90;;;;;;5002094;28;20043;-80
2022/01/08 04:01:09;;;;;;;13.43;4.47;;;1.50;99.90;;;;;;4994661;28;20048;-79
2022/01/08 04:03:34;;;;;;;15.23;5.10;;;1.50;99.90;;;;;;5001291;28;20450;-80
2022/01/08 04:06:00;;;;;;;12.07;4.97;;;1.50;99.90;;;;;;5003568;28;20510;-80
2022/01/08 04:08:26;;;;;;;14.55;4.95;;;1.50;99.90;;;;;;4996031;28;20130;-80
2022/01/08 04:10:52;;;;;;;13.77;5.32;;;1.70;99.90;;;;;;4993431;28;20132;-80
2022/01/08 04:13:23;;;;;;;8.95;4.55;;;1.40;99.90;;;;;;4989563;28;20050;-80
2022/01/08 04:15:52;;;;;;;8.77;4.60;;;1.40;99.90;;;;;;4995072;28;20051;-80
2022/01/08 04:18:18;;;;;;;11.35;4.10;;;1.40;99.90;;;;;;4995590;28;20413;-80
2022/01/08 04:23:28;;;;;;;10.65;3.92;;;1.40;99.90;;;;;;4997595;28;20493;-80
2022/01/08 04:25:54;;;;;;;13.88;3.63;;;1.50;99.90;;;;;;5000516;28;20503;-79
2022/01/08 04:28:20;;;;;;;15.48;4.50;;;1.50;99.90;;;;;;5029858;27;20078;-80
2022/01/08 04:30:45;;;;;;;7.50;3.85;;;1.50;99.90;;;;;;4997881;28;20542;-80
2022/01/08 04:33:11;;;;;;;9.15;4.50;;;1.40;99.90;;;;;;4992897;28;20046;-80
2022/01/08 04:35:37;;;;;;;9.25;3.92;;;1.40;99.90;;;;;;5000481;28;20039;-80
2022/01/08 04:38:03;;;;;;;9.32;3.45;;;1.50;99.90;;;;;;4996302;28;20046;-80
2022/01/08 04:40:29;;;;;;;13.77;3.80;;;1.50;99.90;;;;;;4998071;28;20494;-80
2022/01/08 04:42:55;;;;;;;10.93;4.68;;;1.50;99.90;;;;;;4996504;28;20117;-80
2022/01/08 04:45:22;;;;;;;7.85;2.95;;;1.50;99.90;;;;;;5000766;28;20142;-80
2022/01/08 04:47:48;;;;;;;9.98;3.33;;;1.50;99.90;;;;;;4995906;28;20054;-80
2022/01/08 04:50:13;;;;;;;8.00;2.90;;;1.50;99.90;;;;;;4997744;28;20052;-80
2022/01/08 04:52:40;;;;;;;8.70;2.90;;;1.50;99.90;;;;;;5002911;28;20120;-80
2022/01/08 04:55:06;;;;;;;8.77;2.78;;;1.50;99.90;;;;;;4995516;28;20119;-80
2022/01/08 04:57:32;;;;;;;11.52;3.55;;;1.50;99.90;;;;;;5004749;28;20050;-80
2022/01/08 04:59:57;;;;;;;7.05;3.22;;;1.50;99.90;;;;;;4993287;28;20107;-80
2022/01/08 05:02:23;;;;;;;10.38;4.00;;;1.50;99.90;;;;;;4997870;28;20035;-80
2022/01/08 05:04:49;;;;;;;7.65;3.70;;;1.50;99.90;;;;;;4998079;28;20050;-80
2022/01/08 05:07:14;;;;;;;9.48;3.50;;;1.50;99.90;;;;;;4990644;28;20034;-80
2022/01/08 05:09:40;;;;;;;7.80;3.78;;;1.50;99.90;;;;;;4994301;28;20070;-80
2022/01/08 05:12:06;;;;;;;8.30;3.75;;;1.50;99.90;;;;;;4992701;28;20046;-80
2022/01/08 05:14:32;;;;;;;7.88;3.65;;;1.50;99.90;;;;;;5031808;27;20052;-80
2022/01/08 05:17:01;;;;;;;10.90;4.00;;;1.50;99.90;;;;;;4992355;28;20038;-80
2022/01/08 05:19:42;;;;;;;10.57;4.20;;;1.60;99.90;;;;;;5023663;27;20060;-80
2022/01/08 05:22:09;;;;;;;11.68;4.63;;;1.60;99.90;;;;;;4998431;28;20077;-80
2022/01/08 05:24:35;;;;;;;11.57;4.85;;;1.60;99.90;;;;;;5000820;28;20057;-80
2022/01/08 05:27:05;;;;;;;10.10;4.47;;;1.50;99.90;;;;;;4991851;28;20034;-80
2022/01/08 05:29:31;;;;;;;10.50;4.57;;;1.50;99.90;;;;;;5025220;27;20050;-80
2022/01/08 05:31:57;;;;;;;12.30;4.97;;;1.50;99.90;;;;;;5022947;28;20049;-80
2022/01/08 05:34:22;;;;;;;12.77;5.10;;;1.50;99.90;;;;;;5003799;28;20196;-80
2022/01/08 05:36:48;;;;;;;13.85;5.53;;;1.50;99.90;;;;;;5004264;28;20041;-80
2022/01/08 05:39:13;;;;;;;12.80;5.50;;;1.50;99.90;;;;;;4998134;28;20501;-80
2022/01/08 05:41:39;;;;;;;12.43;5.40;;;1.50;99.90;;;;;;5001300;28;20041;-80
2022/01/08 05:44:05;;;;;;;12.73;5.35;;;1.40;99.90;;;;;;5004009;28;20046;-80
2022/01/08 05:46:30;;;;;;;14.15;6.28;;;1.40;99.90;;;;;;4997665;28;20062;-80
2022/01/08 05:49:00;;;;;;;14.68;5.10;;;1.40;99.90;;;;;;4992832;28;20047;-80
2022/01/08 05:51:26;;;;;;;14.63;5.30;;;1.40;99.90;;;;;;4999268;28;20039;-80
2022/01/08 05:53:51;;;;;;;11.23;5.20;;;1.50;99.90;;;;;;5024577;28;20073;-80
2022/01/08 05:56:17;;;;;;;13.35;4.55;;;1.60;99.90;;;;;;5001524;28;20034;-80
2022/01/08 05:58:43;;;;;;;18.20;6.03;;;1.40;99.90;;;;;;5000430;28;20133;-80
2022/01/08 06:01:08;;;;;;;10.80;4.75;;;1.40;99.90;;;;;;4996032;28;20049;-80
2022/01/08 06:03:34;;;;;;;12.45;5.75;;;1.30;99.90;;;;;;4999664;28;20073;-79
2022/01/08 06:05:59;;;;;;;20.65;5.95;;;1.30;99.90;;;;;;4994961;28;20046;-80
2022/01/08 06:08:25;;;;;;;13.98;5.72;;;1.30;99.90;;;;;;5001766;28;20814;-80
2022/01/08 06:10:51;;;;;;;16.38;6.15;;;;;;;;;;4997665;28;20037;-80
2022/01/08 06:13:17;;;;;;;12.18;5.63;;;1.30;99.90;;;;;;4993941;28;20073;-80
2022/01/08 06:15:42;;;;;;;11.68;5.25;;;1.30;99.90;;;;;;4991467;28;20072;-80
2022/01/08 06:18:08;;;;;;;13.60;5.80;;;2.30;99.90;;;;;;4990595;28;20042;-80
2022/01/08 06:20:34;;;;;;;10.90;4.80;;;1.30;99.90;;;;;;4999719;28;20048;-80
2022/01/08 06:22:59;;;;;;;17.45;5.68;;;1.20;99.90;;;;;;5022874;27;20038;-80
2022/01/08 06:25:25;;;;;;;15.68;5.57;;;1.20;99.90;;;;;;4996643;28;20129;-79
2022/01/08 06:27:51;;;;;;;18.08;5.75;;;1.20;99.90;;;;;;4990103;28;20473;-80
2022/01/08 06:30:17;;;;;;;18.50;6.50;;;1.20;99.90;;;;;;4992910;28;20366;-80
2022/01/08 06:32:42;;;;;;;14.73;6.47;;;1.20;99.90;;;;;;4999412;28;20042;-80
2022/01/08 06:35:08;;;;;;;19.90;6.25;;;1.20;99.90;;;;;;4994279;28;21006;-80
2022/01/08 06:37:33;;;;;;;14.63;6.15;;;1.20;99.90;;;;;;5000961;28;20054;-80
2022/01/08 06:39:59;;;;;;;17.02;5.45;;;1.20;99.90;;;;;;4988610;28;20066;-80
2022/01/08 06:42:25;;;;;;;14.85;6.20;;;1.20;99.90;;;;;;5003714;28;20131;-80
2022/01/08 06:44:50;;;;;;;21.33;7.10;;;1.60;99.90;;;;;;5003733;28;20078;-79
2022/01/08 06:47:16;;;;;;;16.52;6.53;;;1.20;99.90;;;;;;5000639;28;21033;-79
2022/01/08 06:49:41;;;;;;;19.02;6.60;;;1.20;99.90;;;;;;4993658;28;20125;-79
2022/01/08 06:52:07;;;;;;;18.15;6.85;;;1.20;99.90;;;;;;4997406;28;20395;-80
2022/01/08 06:54:33;;;;;;;14.02;6.95;;;1.20;99.90;;;;;;4993305;28;20099;-80
2022/01/08 06:56:59;;;;;;;17.02;7.07;;;1.20;99.90;;;;;;4999176;28;20141;-80
2022/01/08 06:59:24;;;;;;;17.25;7.00;;;1.20;99.90;;;;;;5000171;28;20058;-80
2022/01/08 07:01:50;;;;;;;16.00;6.75;;;1.20;99.90;;;;;;4995362;28;20061;-80
2022/01/08 07:04:15;;;;;;;16.42;6.43;;;1.20;99.90;;;;;;5002932;28;20046;-80
2022/01/08 07:06:41;;;;;;;18.73;6.78;;;1.90;99.90;;;;;;4998730;28;20038;-80
2022/01/08 07:09:06;;;;;;;21.58;6.63;;;1.20;99.90;;;;;;5004124;28;20129;-80
2022/01/08 07:11:32;;;;;;;19.58;7.43;;;1.20;99.90;;;;;;4998256;28;20055;-80
2022/01/08 07:13:57;;;;;;;14.63;6.40;;;1.20;99.90;;;;;;5000427;28;20065;-80
2022/01/08 07:16:23;;;;;;;18.15;7.45;;;1.10;99.90;;;;;;5003368;28;20034;-80
2022/01/08 07:18:48;;;;;;;17.73;6.25;;;1.10;99.90;;;;;;4998088;28;20098;-80
2022/01/08 07:21:14;;;;;;;14.95;6.38;;;1.10;99.90;;;;;;4995261;28;20052;-80
2022/01/08 07:23:39;;;;;;;17.42;6.53;;;1.10;99.90;;;;;;5000612;28;20046;-80
2022/01/08 07:26:05;;;;;;;17.13;6.75;;;1.10;99.90;;;;;;4998397;28;20455;-80
2022/01/08 07:28:31;;;;;;;17.58;7.32;;;1.10;99.90;;;;;;5029538;27;20074;-80
2022/01/08 07:30:56;;;;;;;18.42;6.53;;;1.10;99.90;;;;;;4996815;27;20127;-80
2022/01/08 07:33:22;;;;;;;14.82;6.07;;;1.10;99.90;;;;;;5002754;28;20050;-80
2022/01/08 07:35:47;;;;;;;19.23;6.80;;;1.10;99.90;;;;;;4993367;28;20054;-80
2022/01/08 07:38:13;;;;;;;17.83;5.80;;;1.10;99.90;;;;;;5001226;28;20060;-79
2022/01/08 07:40:38;;;;;;;18.92;6.60;;;1.10;99.90;;;;;;5000979;28;20088;-79
2022/01/08 07:43:04;;;;;;;14.52;6.35;;;1.10;99.90;;;;;;5006534;28;21271;-81
2022/01/08 07:45:30;;;;;;;24.70;8.43;;;1.30;99.90;;;;;;5006840;28;20042;-78
2022/01/08 07:47:55;;;;;;;18.33;8.07;;;1.10;99.90;;;;;;5002797;28;20042;-79
2022/01/08 07:50:22;;;;;;;20.00;6.85;;;1.10;99.90;;;;;;5000978;28;20074;-79
2022/01/08 07:52:47;;;;;;;17.67;6.97;;;1.10;99.90;;;;;;4999344;28;20160;-79
2022/01/08 07:55:13;;;;;;;16.73;6.43;;;1.10;99.90;;;;;;5005006;28;20519;-79
2022/01/08 07:57:39;;;;;;;16.33;5.78;;;1.10;99.90;;;;;;4994594;28;20037;-79
2022/01/08 08:00:05;;;;;;;14.80;5.38;;;1.10;99.90;;;;;;4993200;28;20054;-79
2022/01/08 08:02:31;;;;;;;18.13;6.50;;;1.00;99.90;;;;;;4994101;28;20042;-79
2022/01/08 08:04:56;;;;;;;16.38;6.13;;;1.00;99.90;;;;;;4996459;28;20058;-79
2022/01/08 08:07:36;;;;;;;16.27;5.78;;;1.00;99.90;;;;;;5004703;28;20083;-78
2022/01/08 08:10:07;;;;;;;16.30;6.10;;;1.00;99.90;;;;;;4998996;28;20084;-79
2022/01/08 08:12:32;;;;;;;13.73;6.07;;;1.00;99.90;;;;;;5000764;28;20049;-79
2022/01/08 08:14:58;;;;;;;18.55;6.85;;;1.00;99.90;;;;;;4995232;28;20111;-79
2022/01/08 08:17:24;;;;;;;14.07;6.25;;;1.00;99.90;;;;;;4996065;28;20073;-79
2022/01/08 08:19:49;;;;;;;20.92;6.40;;;1.10;99.90;;;;;;4996234;28;20058;-79
2022/01/08 08:22:15;;;;;;;19.95;6.65;;;1.10;99.90;;;;;;4991719;28;20461;-78
2022/01/08 08:24:40;;;;;;;15.05;6.32;;;1.10;99.90;;;;;;5001907;28;20056;-78
2022/01/08 08:27:06;;;;;;;17.08;6.20;;;1.10;99.90;;;;;;4997752;28;20038;-79
2022/01/08 08:29:32;;;;;;;18.55;7.07;;;1.10;99.90;;;;;;4994756;28;20500;-78
2022/01/08 08:31:57;;;;;;;15.13;6.32;;;1.10;99.90;;;;;;4994658;28;20069;-78
2022/01/08 08:34:23;;;;;;;22.35;8.82;;;1.20;99.90;;;;;;5002349;28;20558;-79
2022/01/08 08:36:48;;;;;;;14.13;5.88;;;1.20;99.90;;;;;;5007184;28;20170;-80
2022/01/08 08:39:14;;;;;;;16.67;6.78;;;1.20;99.90;;;;;;5015230;28;20049;-78
2022/01/08 08:41:39;;;;;;;15.05;6.22;;;1.20;99.90;;;;;;4998428;28;20037;-79
2022/01/08 08:44:05;;;;;;;23.17;6.82;;;1.40;99.90;;;;;;5001897;28;20485;-80
2022/01/08 08:46:30;;;;;;;22.27;8.40;;;1.30;99.90;;;;;;4998376;28;20049;-79
2022/01/08 08:48:56;;;;;;;19.02;5.78;;;1.40;99.90;;;;;;5000532;28;20053;-79
2022/01/08 08:51:22;;;;;;;14.73;5.70;;;1.40;99.90;;;;;;4999067;28;20053;-79
2022/01/08 08:53:47;;;;;;;16.13;6.13;;;1.50;99.90;;;;;;5004489;28;20933;-79
2022/01/08 08:56:13;;;;;;;17.73;6.22;;;1.50;99.90;;;;;;4998346;28;20046;-80
2022/01/08 08:58:38;;;;;;;15.55;5.60;;;1.50;99.90;;;;;;4993191;28;20050;-80
2022/01/08 09:01:04;;;;;;;13.82;5.88;;;1.50;99.90;;;;;;4995091;28;20043;-81
2022/01/08 09:03:29;;;;;;;11.75;5.47;;;1.50;99.90;;;;;;4998385;28;20045;-80
2022/01/08 09:05:55;;;;;;;16.30;5.18;;;1.60;99.90;;;;;;5002742;28;20129;-80
2022/01/08 09:08:20;;;;;;;13.15;5.25;;;1.60;99.90;;;;;;4995126;28;20143;-81
2022/01/08 09:10:46;;;;;;;12.38;6.07;;;1.60;99.90;;;;;;4997932;28;20048;-81
2022/01/08 09:13:12;;;;;;;13.82;5.93;;;1.60;99.90;;;;;;4996724;28;20515;-83
2022/01/08 09:15:41;;;;;;;14.20;5.90;;;1.60;99.90;;;;;;5001435;28;20037;-84
2022/01/08 09:18:08;;;;;;;14.27;5.45;;;1.70;99.90;;;;;;4994679;28;20393;-83
2022/01/08 09:20:33;;;;;;;14.80;5.30;;;1.70;99.90;;;;;;4993974;28;20049;-83
2022/01/08 09:22:59;;;;;;;16.15;5.78;;;1.70;99.90;;;;;;5000864;28;20046;-83
2022/01/08 09:25:25;;;;;;;13.18;5.25;;;1.80;99.90;;;;;;5000107;28;20046;-83
2022/01/08 09:27:50;;;;;;;15.32;4.95;;;1.80;99.90;;;;;;4995468;28;20052;-82
2022/01/08 09:30:16;;;;;;;12.88;5.57;;;1.80;99.90;;;;;;4998684;28;20124;-83
2022/01/08 09:32:45;;;;;;;12.25;5.20;;;1.90;99.90;;;;;;4991518;28;20077;-82
2022/01/08 09:35:13;;;;;;;12.32;4.57;;;1.90;99.90;;;;;;5003902;28;20050;-82
2022/01/08 09:37:39;;;;;;;13.45;4.93;;;2.00;99.90;;;;;;5000474;28;20492;-82
2022/01/08 09:40:10;;;;;;;17.73;5.72;;;2.20;99.90;;;;;;5006955;28;20128;-82
2022/01/08 09:42:36;;;;;;;11.27;4.05;;;2.10;99.90;;;;;;5005280;28;20043;-83
2022/01/08 09:45:02;;;;;;;14.13;4.70;;;2.10;99.90;;;;;;5004349;28;20050;-82
2022/01/08 09:47:29;;;;;;;14.63;5.75;;;2.20;99.90;;;;;;5019243;28;20481;-82
2022/01/08 09:49:54;;;;;;;14.38;6.38;;;2.30;99.90;;;;;;5003434;28;20054;-82
2022/01/08 09:52:20;;;;;;;14.35;5.35;;;2.20;99.90;;;;;;4993527;28;20511;-83
2022/01/08 09:54:46;;;;;;;14.73;5.20;;;2.40;99.90;;;;;;5002841;28;20046;-79
2022/01/08 09:57:11;;;;;;;12.57;6.50;;;2.30;99.90;;;;;;5024383;28;20526;-84
2022/01/08 09:59:37;;;;;;;11.88;5.45;;;2.40;99.90;;;;;;5026314;28;20049;-82
2022/01/08 10:02:04;;;;;;;14.43;4.95;;;2.30;99.90;;;;;;4993862;28;20508;-82
2022/01/08 10:04:33;;;;;;;12.45;5.50;;;2.40;99.90;;;;;;4991024;28;21429;-80
2022/01/08 10:07:18;;;;;;;13.30;5.03;;;2.40;99.90;;;;;;5017043;28;20040;-83
2022/01/08 10:10:13;;;;;;;13.98;5.82;;;2.40;99.90;;;;;;4991871;28;20054;-80
2022/01/08 10:12:44;;;;;;;14.15;5.25;;;2.40;99.90;;;;;;4995083;28;20393;-81
2022/01/08 10:17:57;;;;;;;15.98;4.78;;;2.50;99.90;;;;;;5002086;28;20058;-85
2022/01/08 10:20:32;;;;;;;11.88;4.68;;;2.70;99.90;;;;;;4998249;28;20046;-82
2022/01/08 10:22:59;;;;;;;;;;;2.60;99.90;;;;;;4997513;28;20038;-82
2022/01/08 10:25:24;;;;;;;13.85;4.70;;;2.60;99.90;;;;;;5001455;28;19933;-81
2022/01/08 10:27:50;;;;;;;12.00;4.60;;;2.60;99.90;;;;;;5032176;28;20038;-82
2022/01/08 10:30:26;;;;;;;14.45;4.35;;;2.60;99.90;;;;;;5004404;28;20049;-80
2022/01/08 10:32:57;;;;;;;14.63;5.00;;;2.60;99.90;;;;;;5010348;28;20045;-80
2022/01/08 10:35:52;;;;;;;13.95;4.68;;;2.70;99.90;;;;;;5019864;28;20065;-81
2022/01/08 10:38:18;;;;;;;11.95;4.57;;;2.70;99.90;;;;;;5011009;28;20050;-81
2022/01/08 10:40:43;;;;;;;14.13;4.88;;;2.70;99.90;;;;;;5002947;28;20110;-80
2022/01/08 10:43:39;;;;;;;8.43;4.32;;;2.70;99.90;;;;;;5001873;28;20752;-81
2022/01/08 10:46:22;;;;;;;10.55;4.57;;;2.70;99.90;;;;;;5004045;28;20062;-81
2022/01/08 10:48:50;;;;;;;15.67;5.27;;;2.80;99.90;;;;;;4999360;28;20061;-81
2022/01/08 10:51:21;;;;;;;14.25;5.38;;;2.80;99.90;;;;;;4997463;28;20042;-82
2022/01/08 10:54:00;;;;;;;14.73;5.50;;;2.80;99.90;;;;;;5028389;28;20042;-82
2022/01/08 10:56:44;;;;;;;13.25;6.30;;;3.50;99.90;;;;;;5032534;28;20057;-82
2022/01/08 10:59:13;;;;;;;12.60;6.43;;;2.80;99.90;;;;;;5003335;28;20077;-82
2022/01/08 11:01:45;;;;;;;18.33;5.22;;;2.90;99.90;;;;;;5001036;28;20069;-82
2022/01/08 11:04:14;;;;;;;14.95;5.55;;;2.90;99.90;;;;;;4998124;28;20057;-80
2022/01/08 11:06:53;;;;;;;15.02;6.25;;;2.90;99.90;;;;;;5004550;28;20042;-83
2022/01/08 11:09:20;;;;;;;15.15;6.63;;;2.90;99.90;;;;;;5003604;28;20050;-83
2022/01/08 11:11:47;;;;;;;13.27;6.82;;;3.30;99.90;;;;;;4996727;28;20454;-82
2022/01/08 11:14:46;;;;;;;14.80;6.72;;;2.90;99.90;;;;;;5002422;28;20046;-83
2022/01/08 11:17:17;;;;;;;16.58;7.57;;;2.90;99.90;;;;;;5000370;28;20153;-83
2022/01/08 11:19:45;;;;;;;17.00;8.93;;;2.80;99.90;;;;;;4996036;28;20046;-83
2022/01/08 11:22:14;;;;;;;17.75;9.35;;;2.80;99.90;;;;;;4998172;28;20049;-83
2022/01/08 11:24:46;;;;;;;22.25;12.90;;;2.80;99.90;;;;;;5009271;28;20129;-83
2022/01/08 11:27:13;;;;;;;14.43;8.10;;;2.90;99.90;;;;;;4993791;28;20064;-84
2022/01/08 11:29:40;;;;;;;13.18;7.35;;;2.90;99.90;;;;;;4998937;28;20077;-83
2022/01/08 11:32:07;;;;;;;17.40;7.65;;;2.90;99.90;;;;;;5006383;28;20050;-83
2022/01/08 11:34:33;;;;;;;20.92;9.07;;;2.90;99.90;;;;;;4994351;28;20058;-83
2022/01/08 11:36:59;;;;;;;17.58;9.57;;;3.00;99.90;;;;;;5004142;28;20099;-83
2022/01/08 11:39:27;;;;;;;18.65;8.55;;;3.00;99.90;;;;;;5008434;28;20050;-83
2022/01/08 11:41:55;;;;;;;18.00;8.93;;;3.10;99.90;;;;;;5001707;28;20091;-82
2022/01/08 11:44:23;;;;;;;18.65;8.50;;;3.10;99.90;;;;;;5004494;28;20042;-84
2022/01/08 11:46:50;;;;;;;12.23;7.72;;;3.10;99.90;;;;;;5006562;28;20042;-83
2022/01/08 11:49:16;;;;;;;20.92;9.95;;;3.20;99.90;;;;;;4995776;28;20565;-83
2022/01/08 11:51:42;;;;;;;16.30;8.10;;;3.20;99.90;;;;;;5004874;28;20140;-83
2022/01/08 11:54:07;;;;;;;14.93;7.00;;;3.20;99.90;;;;;;4998768;28;20129;-83
2022/01/08 11:56:38;;;;;;;14.38;8.30;;;3.80;99.90;;;;;;5001931;28;20053;-84
2022/01/08 11:59:20;;;;;;;18.20;7.78;;;3.30;99.90;;;;;;4995954;28;20046;-84
2022/01/08 12:02:07;;;;;;;21.20;8.18;;;3.30;99.90;;;;;;5002819;28;20393;-83
2022/01/08 12:04:33;;;;;;;16.13;7.78;;;3.40;99.90;;;;;;5006163;28;20046;-83
2022/01/08 12:07:37;;;;;;;17.13;7.18;;;3.40;99.90;;;;;;5002285;28;20052;-84
2022/01/08 12:10:19;;;;;;;13.73;7.88;;;3.40;99.90;;;;;;4997081;28;20059;-83
2022/01/08 12:12:57;;;;;;;16.00;8.18;;;3.50;99.90;;;;;;4991423;28;20061;-83
2022/01/08 12:15:41;;;;;;;11.70;7.07;;;3.50;99.90;;;;;;5002594;28;20091;-84
2022/01/08 12:18:09;;;;;;;17.40;8.93;;;3.50;99.90;;;;;;5004433;28;20401;-84
2022/01/08 12:20:54;;;;;;;17.17;8.93;;;3.60;99.90;;;;;;4995907;28;20056;-84
2022/01/08 12:23:36;;;;;;;14.93;8.70;;;3.50;99.90;;;;;;5001539;28;20125;-84
2022/01/08 12:26:28;;;;;;;14.70;8.82;;;3.60;99.90;;;;;;5028157;27;20046;-83
2022/01/08 12:29:00;;;;;;;18.42;9.07;;;3.60;99.90;;;;;;5024625;27;20053;-83
2022/01/08 12:31:42;;;;;;;21.80;11.00;;;4.10;99.90;;;;;;5001337;28;20043;-84
2022/01/08 12:34:26;;;;;;;16.75;10.98;;;3.60;99.90;;;;;;4998280;28;20136;-84
2022/01/08 12:37:01;;;;;;;20.90;10.50;;;3.60;99.90;;;;;;5001447;28;20061;-83
2022/01/08 12:39:47;;;;;;;18.60;11.43;;;3.60;99.90;;;;;;4999239;28;20046;-84
2022/01/08 12:42:22;;;;;;;19.73;10.68;;;3.60;99.90;;;;;;5002600;28;20046;-77
2022/01/08 12:45:20;;;;;;;20.33;12.85;;;3.60;99.90;;;;;;5029188;27;20066;-76
2022/01/08 12:48:04;;;;;;;19.73;12.10;;;3.60;99.90;;;;;;5017284;28;20169;-76
2022/01/08 12:50:53;;;;;;;20.85;13.18;;;3.60;99.90;;;;;;4996627;28;20515;-75
2022/01/08 12:53:28;;;;;;;26.38;13.07;;;4.90;99.90;;;;;;5001013;28;20400;-79
2022/01/08 12:55:53;;;;;;;20.15;13.20;;;4.20;99.90;;;;;;5001187;28;20053;-77
2022/01/08 12:58:33;;;;;;;23.10;14.38;;;3.60;99.90;;;;;;4999689;28;20041;-76
2022/01/08 13:01:06;;;;;;;23.05;14.38;;;3.70;99.90;;;;;;5023968;28;20191;-81
2022/01/08 13:03:35;;;;;;;20.48;14.13;;;3.70;99.90;;;;;;4997889;28;20042;-72
2022/01/08 13:06:02;;;;;;;30.95;15.75;;;3.60;99.90;;;;;;4994499;28;20084;-74
2022/01/08 13:08:32;;;;;;;20.40;13.43;;;3.60;99.90;;;;;;5001682;28;20489;-74
2022/01/08 13:11:01;;;;;;;28.42;16.77;;;3.60;99.90;;;;;;4993807;28;20661;-74
2022/01/08 13:13:38;;;;;;;24.85;14.85;;;3.70;99.90;;;;;;4996406;28;20071;-76
2022/01/08 13:16:20;;;;;;;24.05;15.20;;;3.70;99.90;;;;;;4995922;28;20050;-77
2022/01/08 13:18:48;;;;;;;26.80;14.63;;;3.60;99.90;;;;;;4990002;28;20694;-76
2022/01/08 13:21:14;;;;;;;27.33;16.13;;;3.60;99.90;;;;;;4996866;28;20046;-76
2022/01/08 13:23:48;;;;;;;24.75;15.65;;;3.60;99.90;;;;;;4999315;28;20077;-79